Time;durP1;ratioP1;P1;durP2;ratioP2;P2;SDS_P1;SDS_P2;PMS_P1;PMS_P2;Temp;Humidity;BMP_temperature;BMP_pressure;BME280_temperature;BME280_humidity;BME280_pressure;Samples;Min_cycle;Max_cycle;Signal;HPM_P1;HPM_P2
2022/04/04 00:01:46;;;;;;;15.08;11.35;;;-1.20;99.90;;;;;;2027961;69;21054;-83
2022/04/04 00:04:14;;;;;;;16.55;11.30;;;-1.20;99.90;;;;;;1998848;70;21300;-83
2022/04/04 00:06:42;;;;;;;15.65;11.43;;;-1.20;99.90;;;;;;2019946;69;21067;-82
2022/04/04 00:09:09;;;;;;;20.43;11.55;;;-1.20;99.90;;;;;;2026023;69;21087;-83
2022/04/04 00:11:36;;;;;;;15.13;10.38;;;-1.20;99.90;;;;;;2030559;69;21124;-82
2022/04/04 00:14:03;;;;;;;12.98;10.40;;;-1.20;99.90;;;;;;2032395;69;21447;-81
2022/04/04 00:16:32;;;;;;;13.95;10.45;;;-1.20;99.90;;;;;;2022580;70;21121;-84
2022/04/04 00:19:01;;;;;;;19.85;10.82;;;-1.20;99.90;;;;;;1993933;70;21170;-83
2022/04/04 00:21:29;;;;;;;14.90;11.22;;;-1.20;99.90;;;;;;2023578;70;21043;-82
2022/04/04 00:23:56;;;;;;;15.98;10.68;;;-1.20;99.90;;;;;;2028144;70;21493;-83
2022/04/04 00:26:24;;;;;;;15.90;11.12;;;-1.20;99.90;;;;;;2029661;69;21027;-82
2022/04/04 00:28:53;;;;;;;14.93;10.45;;;-1.20;99.90;;;;;;2036067;69;21531;-83
2022/04/04 00:31:21;;;;;;;13.80;11.53;;;-1.30;99.90;;;;;;2029467;69;21059;-81
2022/04/04 00:33:48;;;;;;;17.42;10.45;;;-1.30;99.90;;;;;;2030065;70;21455;-82
2022/04/04 00:36:17;;;;;;;15.28;10.78;;;-1.30;99.90;;;;;;2021113;69;21055;-78
2022/04/04 00:38:44;;;;;;;15.45;10.78;;;-1.30;99.90;;;;;;2020540;69;21232;-77
2022/04/04 00:41:13;;;;;;;17.30;11.08;;;-1.30;99.90;;;;;;2018320;70;21158;-82
2022/04/04 00:43:40;;;;;;;16.55;11.75;;;-1.40;99.90;;;;;;2024509;70;21055;-84
2022/04/04 00:46:08;;;;;;;16.20;11.48;;;-1.50;99.90;;;;;;2028759;69;21445;-83
2022/04/04 00:48:35;;;;;;;15.00;11.28;;;-1.40;99.90;;;;;;2027978;69;21054;-82
2022/04/04 00:51:03;;;;;;;18.00;11.55;;;-1.40;99.90;;;;;;2022498;70;21174;-83
2022/04/04 00:53:30;;;;;;;19.45;12.10;;;-1.50;99.90;;;;;;2021852;70;21430;-82
2022/04/04 00:55:58;;;;;;;14.20;10.63;;;-1.50;99.90;;;;;;2021328;69;21050;-83
2022/04/04 00:58:25;;;;;;;18.92;10.90;;;-1.50;99.90;;;;;;2029336;69;21050;-82
2022/04/04 01:00:53;;;;;;;16.10;11.05;;;-1.40;99.90;;;;;;2024992;70;21054;-83
2022/04/04 01:03:22;;;;;;;16.48;10.65;;;-1.50;99.90;;;;;;1995376;70;21037;-82
2022/04/04 01:05:49;;;;;;;15.83;10.78;;;-1.50;99.90;;;;;;2034105;70;21079;-83
2022/04/04 01:08:18;;;;;;;17.85;11.15;;;-1.50;99.90;;;;;;2018237;69;21190;-83
2022/04/04 01:10:45;;;;;;;30.02;11.68;;;-1.60;99.90;;;;;;2021099;70;21047;-83
2022/04/04 01:13:12;;;;;;;15.83;11.70;;;-1.60;99.90;;;;;;2022168;70;21039;-82
2022/04/04 01:15:40;;;;;;;17.30;11.28;;;-1.60;99.90;;;;;;2035979;70;21420;-82
2022/04/04 01:18:08;;;;;;;15.80;10.70;;;-1.60;99.90;;;;;;2023372;69;21072;-82
2022/04/04 01:20:36;;;;;;;16.55;10.95;;;-1.70;99.90;;;;;;2019894;69;21174;-80
2022/04/04 01:23:05;;;;;;;15.85;11.08;;;-1.70;99.90;;;;;;2034387;70;21054;-83
2022/04/04 01:25:33;;;;;;;17.62;10.88;;;-1.70;99.90;;;;;;2021447;70;21081;-84
2022/04/04 01:28:01;;;;;;;16.82;11.60;;;-1.70;99.90;;;;;;2012827;70;21500;-82
2022/04/04 01:30:31;;;;;;;17.15;11.50;;;-1.70;99.90;;;;;;2026976;69;21128;-81
2022/04/04 01:32:59;;;;;;;14.78;11.83;;;-1.80;99.90;;;;;;2029790;70;21091;-82
2022/04/04 01:35:27;;;;;;;17.35;11.43;;;-1.70;99.90;;;;;;2020365;70;21114;-82
2022/04/04 01:37:56;;;;;;;20.72;12.78;;;-1.70;99.90;;;;;;2028668;69;21191;-83
2022/04/04 01:40:24;;;;;;;15.53;11.20;;;-1.70;99.90;;;;;;2028132;70;21104;-82
2022/04/04 01:42:53;;;;;;;19.05;11.05;;;-1.70;99.90;;;;;;2029627;70;21149;-82
2022/04/04 01:46:23;;;;;;;17.15;11.55;;;-1.80;99.90;;;;;;2022496;70;21058;-82
2022/04/04 01:47:50;;;;;;;15.75;11.28;;;-1.80;99.90;;;;;;2019453;69;21456;-82
2022/04/04 01:50:18;;;;;;;19.23;12.00;;;-1.80;99.90;;;;;;2031077;70;21555;-83
2022/04/04 01:53:25;;;;;;;17.85;12.07;;;-1.80;99.90;;;;;;2024158;70;21671;-81
2022/04/04 01:55:14;;;;;;;16.97;12.00;;;-1.90;99.90;;;;;;2018242;69;21129;-83
2022/04/04 01:57:42;;;;;;;19.90;12.50;;;-1.90;99.90;;;;;;2024546;69;21054;-82
2022/04/04 02:00:10;;;;;;;20.10;12.23;;;-1.90;99.90;;;;;;2026808;70;21028;-83
2022/04/04 02:02:37;;;;;;;17.20;12.37;;;-1.90;99.90;;;;;;2018983;70;21094;-82
2022/04/04 02:05:05;;;;;;;18.55;12.78;;;-2.00;99.90;;;;;;2025311;70;21244;-82
2022/04/04 02:07:32;;;;;;;20.43;12.13;;;-2.00;99.90;;;;;;2025659;70;21620;-82
2022/04/04 02:09:59;;;;;;;18.48;12.98;;;-2.00;99.90;;;;;;2027505;70;21058;-82
2022/04/04 02:12:30;;;;;;;18.98;12.85;;;-1.90;99.90;;;;;;2033492;70;21495;-81
2022/04/04 02:14:56;;;;;;;19.77;12.85;;;-2.00;99.90;;;;;;2025536;69;21098;-81
2022/04/04 02:17:23;;;;;;;24.12;13.40;;;-2.00;99.90;;;;;;2012218;71;21055;-83
2022/04/04 02:19:50;;;;;;;18.50;12.15;;;-2.00;99.90;;;;;;2021228;70;21055;-82
2022/04/04 02:22:19;;;;;;;23.32;13.70;;;-2.00;99.90;;;;;;2032159;69;21411;-82
2022/04/04 02:24:47;;;;;;;17.77;12.47;;;-2.00;99.90;;;;;;2021120;70;21121;-82
2022/04/04 02:27:16;;;;;;;17.42;12.68;;;-2.10;99.90;;;;;;2018938;70;21067;-82
2022/04/04 02:29:43;;;;;;;23.30;12.47;;;-2.10;99.90;;;;;;2027621;70;21050;-82
2022/04/04 02:32:11;;;;;;;25.68;13.30;;;-2.10;99.90;;;;;;2020408;70;21047;-83
2022/04/04 02:34:38;;;;;;;19.02;12.88;;;-2.10;99.90;;;;;;2020007;69;21234;-83
2022/04/04 02:37:05;;;;;;;20.32;12.90;;;-2.10;99.90;;;;;;2030898;70;21070;-83
2022/04/04 02:39:33;;;;;;;18.05;11.63;;;-2.10;99.90;;;;;;2016393;69;21042;-82
2022/04/04 02:42:00;;;;;;;21.57;13.25;;;-2.10;99.90;;;;;;2027792;70;21047;-81
2022/04/04 02:44:28;;;;;;;20.82;12.80;;;-2.10;99.90;;;;;;2021389;70;21050;-82
2022/04/04 02:46:55;;;;;;;21.77;12.45;;;-2.10;99.90;;;;;;2019201;70;21366;-82
2022/04/04 02:49:23;;;;;;;17.20;13.38;;;-2.20;99.90;;;;;;2015216;69;21105;-81
2022/04/04 02:51:52;;;;;;;20.88;14.35;;;-2.20;99.90;;;;;;2026659;70;21132;-82
2022/04/04 02:54:21;;;;;;;19.67;13.72;;;-2.10;99.90;;;;;;2033279;70;21070;-82
2022/04/04 02:56:48;;;;;;;20.08;13.83;;;-2.20;99.90;;;;;;2033507;69;21116;-83
2022/04/04 02:59:15;;;;;;;18.62;13.68;;;-2.20;99.90;;;;;;2030078;70;21419;-82
2022/04/04 03:01:48;;;;;;;20.75;14.63;;;-2.30;99.90;;;;;;2023914;70;21124;-84
2022/04/04 03:04:12;;;;;;;26.23;14.60;;;-2.30;99.90;;;;;;2020833;70;21468;-83
2022/04/04 03:06:39;;;;;;;25.70;14.50;;;-2.30;99.90;;;;;;2020887;69;21128;-82
2022/04/04 03:09:07;;;;;;;23.18;14.25;;;-2.30;99.90;;;;;;1996579;71;21027;-80
2022/04/04 03:11:34;;;;;;;19.62;13.43;;;-2.30;99.90;;;;;;2031446;70;21019;-82
2022/04/04 03:14:02;;;;;;;18.23;13.53;;;-2.30;99.90;;;;;;2024263;69;21048;-82
2022/04/04 03:16:29;;;;;;;25.10;14.30;;;-2.30;99.90;;;;;;2014648;70;21055;-81
2022/04/04 03:18:57;;;;;;;19.73;13.68;;;-2.30;99.90;;;;;;2033565;70;21189;-82
2022/04/04 03:21:25;;;;;;;23.05;13.98;;;-2.30;99.90;;;;;;2014828;70;21110;-83
2022/04/04 03:23:52;;;;;;;21.70;13.83;;;-2.40;99.90;;;;;;2013614;70;21443;-80
2022/04/04 03:26:19;;;;;;;19.42;12.98;;;-2.30;99.90;;;;;;2013540;71;21132;-81
2022/04/04 03:28:47;;;;;;;27.20;14.80;;;-2.30;99.90;;;;;;2032550;69;21426;-83
2022/04/04 03:31:14;;;;;;;25.35;13.45;;;-2.30;99.90;;;;;;2034176;70;21121;-82
2022/04/04 03:33:43;;;;;;;21.68;12.80;;;-2.30;99.90;;;;;;2020726;70;21051;-83
2022/04/04 03:36:11;;;;;;;18.00;13.18;;;-2.40;99.90;;;;;;2024810;70;21223;-81
2022/04/04 03:38:38;;;;;;;25.70;13.93;;;-2.30;99.90;;;;;;2020452;70;21038;-80
2022/04/04 03:41:06;;;;;;;17.55;13.22;;;-2.40;99.90;;;;;;2032779;70;21195;-78
2022/04/04 03:43:37;;;;;;;20.35;13.72;;;-2.40;99.90;;;;;;2026750;70;21050;-82
2022/04/04 03:46:04;;;;;;;21.23;13.30;;;-2.40;99.90;;;;;;2017102;69;21154;-82
2022/04/04 03:48:32;;;;;;;22.67;13.15;;;-2.40;99.90;;;;;;2018239;70;21128;-81
2022/04/04 03:51:01;;;;;;;20.77;14.47;;;-2.40;99.90;;;;;;2024965;69;21092;-82
2022/04/04 03:53:28;;;;;;;22.02;13.28;;;-2.40;99.90;;;;;;2029099;70;21046;-82
2022/04/04 03:55:56;;;;;;;22.32;13.25;;;-2.40;99.90;;;;;;2032172;69;21547;-80
2022/04/04 03:58:25;;;;;;;17.98;13.08;;;-2.40;99.90;;;;;;2022307;69;21124;-82
2022/04/04 04:00:52;;;;;;;18.60;12.85;;;-2.40;99.90;;;;;;2027763;69;21050;-82
2022/04/04 04:03:19;;;;;;;25.77;14.30;;;-2.40;99.90;;;;;;1993085;70;21048;-82
2022/04/04 04:05:46;;;;;;;19.98;13.62;;;-2.50;99.90;;;;;;1994806;70;21043;-81
2022/04/04 04:08:14;;;;;;;20.08;12.43;;;-2.50;99.90;;;;;;2027810;69;21125;-81
2022/04/04 04:10:41;;;;;;;22.48;13.55;;;-2.50;99.90;;;;;;1999870;70;21039;-80
2022/04/04 04:13:08;;;;;;;22.37;13.85;;;-2.40;99.90;;;;;;2024216;70;21042;-81
2022/04/04 04:15:36;;;;;;;18.07;13.22;;;-2.40;99.90;;;;;;2026636;70;21110;-81
2022/04/04 04:18:03;;;;;;;20.35;13.00;;;-2.40;99.90;;;;;;2025122;70;21050;-81
2022/04/04 04:20:32;;;;;;;17.15;12.20;;;-2.40;99.90;;;;;;2018345;69;21059;-82
2022/04/04 04:23:02;;;;;;;18.23;12.10;;;-2.40;99.90;;;;;;2024134;69;21485;-80
2022/04/04 04:25:33;;;;;;;24.50;14.28;;;-2.50;99.90;;;;;;2027679;70;21029;-81
2022/04/04 04:28:01;;;;;;;19.20;13.00;;;-2.50;99.90;;;;;;2024769;71;21047;-82
2022/04/04 04:30:30;;;;;;;18.55;12.65;;;-2.50;99.90;;;;;;2027136;70;21494;-81
2022/04/04 04:32:58;;;;;;;18.52;12.58;;;-2.50;99.90;;;;;;2032202;70;21113;-80
2022/04/04 04:35:26;;;;;;;17.00;12.10;;;-2.50;99.90;;;;;;2025475;70;21122;-80
2022/04/04 04:37:54;;;;;;;29.32;14.18;;;-2.50;99.90;;;;;;2024220;69;21084;-81
2022/04/04 04:40:21;;;;;;;15.70;12.05;;;-2.50;99.90;;;;;;2015496;69;21125;-82
2022/04/04 04:42:50;;;;;;;17.50;12.78;;;-2.50;99.90;;;;;;2019952;70;21383;-80
2022/04/04 04:45:20;;;;;;;21.52;13.40;;;-2.50;99.90;;;;;;1964512;70;21102;-80
2022/04/04 04:47:48;;;;;;;19.32;13.18;;;-2.50;99.90;;;;;;2034156;70;21055;-81
2022/04/04 04:50:16;;;;;;;20.60;13.60;;;-2.60;99.90;;;;;;2028148;70;21126;-81
2022/04/04 04:52:46;;;;;;;17.70;12.73;;;-2.60;99.90;;;;;;2024282;70;21083;-81
2022/04/04 04:55:13;;;;;;;16.90;12.98;;;-2.60;99.90;;;;;;2023603;70;21529;-81
2022/04/04 04:57:41;;;;;;;18.32;13.65;;;-2.50;99.90;;;;;;2018288;69;21142;-81
2022/04/04 05:00:11;;;;;;;18.37;12.43;;;-2.50;99.90;;;;;;2030812;70;21070;-81
2022/04/04 05:02:38;;;;;;;16.55;11.80;;;-2.50;99.90;;;;;;2026263;70;21067;-82
2022/04/04 05:05:07;;;;;;;18.05;12.20;;;-2.50;99.90;;;;;;2017629;69;21437;-79
2022/04/04 05:07:34;;;;;;;17.60;12.25;;;-2.60;99.90;;;;;;2020328;69;21416;-78
2022/04/04 05:10:03;;;;;;;17.32;12.15;;;-2.60;99.90;;;;;;2023971;70;21046;-80
2022/04/04 05:12:32;;;;;;;18.15;12.73;;;-2.60;99.90;;;;;;2024691;70;21047;-81
2022/04/04 05:14:59;;;;;;;18.12;12.30;;;-2.50;99.90;;;;;;2028145;70;21123;-82
2022/04/04 05:17:26;;;;;;;19.27;12.88;;;-2.50;99.90;;;;;;2022839;70;21168;-81
2022/04/04 05:19:55;;;;;;;19.80;13.08;;;-2.50;99.90;;;;;;1991567;71;21067;-82
2022/04/04 05:22:23;;;;;;;17.05;12.70;;;-2.60;99.90;;;;;;2027741;70;21100;-82
2022/04/04 05:24:50;;;;;;;19.05;12.58;;;-2.60;99.90;;;;;;2024137;70;21534;-82
2022/04/04 05:27:17;;;;;;;18.98;12.20;;;-2.50;99.90;;;;;;2023153;70;21075;-82
2022/04/04 05:29:45;;;;;;;27.55;11.80;;;-2.50;99.90;;;;;;2031455;69;21492;-80
2022/04/04 05:32:12;;;;;;;17.73;12.85;;;-2.50;99.90;;;;;;1997269;70;21035;-81
2022/04/04 05:34:41;;;;;;;17.15;11.08;;;-2.50;99.90;;;;;;2027330;70;21447;-82
2022/04/04 05:37:08;;;;;;;17.82;11.95;;;-2.40;99.90;;;;;;2032327;70;21046;-82
2022/04/04 05:39:35;;;;;;;18.77;11.15;;;-2.40;99.90;;;;;;2015129;71;21423;-81
2022/04/04 05:42:03;;;;;;;14.70;11.08;;;-2.30;99.90;;;;;;2021966;70;21116;-82
2022/04/04 05:44:32;;;;;;;15.15;10.85;;;-2.40;99.90;;;;;;2028225;70;21052;-80
2022/04/04 05:47:00;;;;;;;21.55;11.08;;;-2.30;99.90;;;;;;2032701;69;21076;-87
2022/04/04 05:49:27;;;;;;;15.90;11.03;;;-2.20;99.90;;;;;;2025553;70;21491;-70
2022/04/04 05:51:54;;;;;;;15.65;11.05;;;-2.20;99.90;;;;;;2033155;70;21031;-70
2022/04/04 05:54:22;;;;;;;16.57;10.88;;;-2.20;99.90;;;;;;2017665;70;21540;-70
2022/04/04 05:56:49;;;;;;;14.25;9.83;;;-2.20;99.90;;;;;;2017391;70;21068;-70
2022/04/04 05:59:16;;;;;;;15.40;10.82;;;-2.00;99.90;;;;;;2029041;70;21171;-69
2022/04/04 06:01:44;;;;;;;16.97;11.05;;;-2.10;99.90;;;;;;2025522;70;21520;-69
2022/04/04 06:04:11;;;;;;;17.65;11.48;;;-2.10;99.90;;;;;;2020956;69;21132;-70
2022/04/04 06:06:39;;;;;;;17.85;11.63;;;-2.00;99.90;;;;;;2034773;70;21479;-68
2022/04/04 06:09:06;;;;;;;16.48;11.10;;;-2.00;99.90;;;;;;2027002;69;21220;-69
2022/04/04 06:11:34;;;;;;;16.77;11.22;;;-2.00;99.90;;;;;;2022694;70;21154;-70
2022/04/04 06:14:02;;;;;;;19.37;11.12;;;-1.90;99.90;;;;;;2029414;70;21063;-69
2022/04/04 06:16:29;;;;;;;13.13;10.18;;;-1.90;99.90;;;;;;2018064;70;21094;-68
2022/04/04 06:18:57;;;;;;;13.00;10.18;;;-1.90;99.90;;;;;;2018967;70;21170;-68
2022/04/04 06:21:24;;;;;;;16.02;11.60;;;-1.80;99.90;;;;;;2016785;70;21117;-70
2022/04/04 06:23:51;;;;;;;16.93;11.80;;;-1.80;99.90;;;;;;2021057;70;21109;-68
2022/04/04 06:26:19;;;;;;;15.28;11.80;;;-1.80;99.90;;;;;;2012235;71;21071;-67
2022/04/04 06:28:47;;;;;;;14.03;9.93;;;-1.70;99.90;;;;;;2018993;70;21070;-68
2022/04/04 06:31:15;;;;;;;17.35;12.10;;;-1.60;99.90;;;;;;2022788;70;21112;-68
2022/04/04 06:33:42;;;;;;;17.30;11.83;;;-1.50;99.90;;;;;;2016029;70;21039;-68
2022/04/04 06:36:10;;;;;;;18.07;10.55;;;-1.50;99.90;;;;;;2024319;70;21055;-67
2022/04/04 06:38:37;;;;;;;16.55;10.63;;;-1.50;99.90;;;;;;2021414;70;21191;-68
2022/04/04 06:41:04;;;;;;;14.60;11.08;;;-1.40;99.90;;;;;;2022955;69;21051;-68
2022/04/04 06:43:32;;;;;;;14.70;10.75;;;-1.30;99.90;;;;;;2026800;70;21157;-69
2022/04/04 06:46:00;;;;;;;18.23;11.22;;;-1.30;99.90;;;;;;2021701;70;21120;-69
2022/04/04 06:48:27;;;;;;;20.85;10.82;;;-1.10;99.90;;;;;;2019723;70;21156;-68
2022/04/04 06:50:54;;;;;;;19.57;11.20;;;-1.10;99.90;;;;;;2011408;70;21085;-70
2022/04/04 06:53:22;;;;;;;17.12;10.78;;;-1.00;99.90;;;;;;2027637;70;21455;-69
2022/04/04 06:55:50;;;;;;;18.12;11.43;;;-0.90;99.90;;;;;;2032317;70;21074;-69
2022/04/04 06:58:17;;;;;;;20.82;11.18;;;-0.70;99.90;;;;;;2033340;70;21266;-69
2022/04/04 07:00:45;;;;;;;22.17;11.15;;;-0.60;99.90;;;;;;2022469;70;21055;-68
2022/04/04 07:03:12;;;;;;;18.57;10.23;;;-0.60;99.90;;;;;;2026603;69;21040;-69
2022/04/04 07:05:40;;;;;;;15.98;10.18;;;-0.50;99.90;;;;;;2027089;70;21051;-68
2022/04/04 07:08:08;;;;;;;12.58;9.65;;;-0.40;99.90;;;;;;2028388;70;21114;-68
2022/04/04 07:10:35;;;;;;;15.70;9.98;;;-0.20;99.90;;;;;;2008701;71;21103;-68
2022/04/04 07:13:04;;;;;;;16.70;10.00;;;-0.20;99.90;;;;;;2023361;70;21137;-67
2022/04/04 07:15:31;;;;;;;16.02;9.43;;;-0.10;99.90;;;;;;2030178;69;21450;-68
2022/04/04 07:17:59;;;;;;;16.87;9.40;;;0.10;99.90;;;;;;2021571;70;21055;-67
2022/04/04 07:20:26;;;;;;;14.78;9.80;;;0.30;99.90;;;;;;2032072;69;21125;-68
2022/04/04 07:22:54;;;;;;;15.00;9.55;;;0.30;99.90;;;;;;2027612;70;21039;-69
2022/04/04 07:25:22;;;;;;;12.33;8.93;;;0.40;99.90;;;;;;2022475;70;21068;-68
2022/04/04 07:27:49;;;;;;;12.98;9.28;;;0.60;99.90;;;;;;2029075;70;21044;-70
2022/04/04 07:30:18;;;;;;;13.05;9.05;;;0.70;99.90;;;;;;2023622;70;21055;-72
2022/04/04 07:32:50;;;;;;;16.75;9.70;;;0.60;99.90;;;;;;2029930;69;21435;-68
2022/04/04 07:35:17;;;;;;;14.55;8.78;;;0.60;99.90;;;;;;2031583;70;21090;-68
2022/04/04 07:37:46;;;;;;;12.43;8.55;;;0.70;99.90;;;;;;2025884;69;21144;-70
2022/04/04 07:40:15;;;;;;;14.03;8.83;;;0.90;99.90;;;;;;2029076;70;21054;-68
2022/04/04 07:42:43;;;;;;;12.40;9.00;;;1.00;99.90;;;;;;2024481;70;21173;-68
2022/04/04 07:45:13;;;;;;;13.80;8.48;;;1.30;99.90;;;;;;2020496;70;21139;-68
2022/04/04 07:47:41;;;;;;;12.78;9.10;;;1.60;99.90;;;;;;2024047;69;21197;-68
2022/04/04 07:50:09;;;;;;;10.90;8.67;;;1.60;99.90;;;;;;2019423;70;21202;-69
2022/04/04 07:52:37;;;;;;;12.47;8.45;;;1.70;99.90;;;;;;2015736;70;21134;-68
2022/04/04 07:55:06;;;;;;;12.05;8.83;;;2.00;99.90;;;;;;2019502;69;21058;-68
2022/04/04 07:57:34;;;;;;;13.98;8.50;;;2.10;99.90;;;;;;2020296;70;21436;-67
2022/04/04 08:00:01;;;;;;;15.85;8.00;;;2.40;99.90;;;;;;2022406;70;21479;-67
2022/04/04 08:02:28;;;;;;;8.83;7.10;;;2.40;99.90;;;;;;2028017;70;21127;-67
2022/04/04 08:04:56;;;;;;;14.87;8.13;;;2.60;99.90;;;;;;2031849;69;21443;-68
2022/04/04 08:07:23;;;;;;;11.65;8.10;;;2.90;99.90;;;;;;2024481;69;21051;-69
2022/04/04 08:09:51;;;;;;;10.30;7.30;;;3.00;99.90;;;;;;2021965;70;21043;-68
2022/04/04 08:12:18;;;;;;;12.18;6.83;;;3.50;99.90;;;;;;2027100;70;21059;-69
2022/04/04 08:14:48;;;;;;;7.72;6.47;;;3.70;99.90;;;;;;2011484;71;21158;-68
2022/04/04 08:17:14;;;;;;;10.60;7.45;;;4.00;99.90;;;;;;2024797;69;21168;-69
2022/04/04 08:19:42;;;;;;;11.20;6.90;;;4.00;99.90;;;;;;1996406;70;21043;-69
2022/04/04 08:22:10;;;;;;;10.88;7.53;;;4.20;99.90;;;;;;2025507;69;21050;-69
2022/04/04 08:24:40;;;;;;;10.95;7.08;;;4.10;99.90;;;;;;2017348;70;21652;-69
2022/04/04 08:27:07;;;;;;;11.03;7.20;;;4.00;99.90;;;;;;2012220;71;21080;-69
2022/04/04 08:29:35;;;;;;;8.83;6.28;;;4.30;99.90;;;;;;2011576;71;21051;-70
2022/04/04 08:32:02;;;;;;;15.03;7.22;;;4.60;99.90;;;;;;2030914;70;21050;-69
2022/04/04 08:34:29;;;;;;;9.30;6.62;;;5.00;99.90;;;;;;2026817;69;21226;-69
2022/04/04 08:36:58;;;;;;;9.63;6.75;;;4.90;99.90;;;;;;2027527;70;21443;-69
2022/04/04 08:39:26;;;;;;;12.03;6.92;;;5.30;99.90;;;;;;2017517;70;21128;-69
2022/04/04 08:41:57;;;;;;;8.58;5.42;;;5.70;99.90;;;;;;2029147;70;21147;-68
2022/04/04 08:44:25;;;;;;;5.45;4.53;;;5.90;99.90;;;;;;2011596;71;21069;-68
2022/04/04 08:46:52;;;;;;;8.08;5.17;;;5.50;99.90;;;;;;2020536;70;21054;-68
2022/04/04 08:49:20;;;;;;;7.28;5.87;;;5.40;99.90;;;;;;2016672;70;21597;-68
2022/04/04 08:51:49;;;;;;;8.38;5.87;;;5.40;99.90;;;;;;2023160;70;21495;-68
2022/04/04 08:54:16;;;;;;;8.88;5.75;;;5.30;99.90;;;;;;2017371;70;21300;-69
2022/04/04 08:56:43;;;;;;;8.00;5.12;;;5.20;99.90;;;;;;2015217;70;21051;-67
2022/04/04 08:59:11;;;;;;;7.42;5.37;;;5.30;99.90;;;;;;2028274;70;21056;-68
2022/04/04 09:01:38;;;;;;;5.67;4.45;;;5.70;99.90;;;;;;2017336;70;21105;-71
2022/04/04 09:04:09;;;;;;;5.50;4.37;;;5.80;99.90;;;;;;2015609;70;21133;-68
2022/04/04 09:06:52;;;;;;;8.33;4.53;;;6.00;99.90;;;;;;2034835;70;21050;-69
2022/04/04 09:09:28;;;;;;;5.95;4.28;;;5.90;99.90;;;;;;2013557;70;21461;-70
2022/04/04 09:12:10;;;;;;;9.45;5.35;;;5.80;99.90;;;;;;2013371;71;21027;-70
2022/04/04 09:14:46;;;;;;;6.00;4.42;;;5.60;99.90;;;;;;2023145;69;21120;-69
2022/04/04 09:17:14;;;;;;;6.22;4.42;;;5.50;99.90;;;;;;2029891;70;21054;-70
2022/04/04 09:19:41;;;;;;;5.47;4.53;;;6.00;99.90;;;;;;2024264;70;21055;-68
2022/04/04 09:22:11;;;;;;;6.20;4.90;;;5.90;99.90;;;;;;2023340;70;21072;-68
2022/04/04 09:24:55;;;;;;;11.25;4.67;;;6.20;99.90;;;;;;2016018;69;21444;-69
2022/04/04 09:27:25;;;;;;;7.85;4.42;;;6.60;99.90;;;;;;2016679;70;21123;-68
2022/04/04 09:29:54;;;;;;;10.40;4.30;;;6.70;99.90;;;;;;2013764;70;20999;-68
2022/04/04 09:32:22;;;;;;;6.25;3.65;;;6.60;99.90;;;;;;2017009;70;21733;-69
2022/04/04 09:35:00;;;;;;;4.67;3.80;;;6.50;99.90;;;;;;2014650;70;21048;-68
2022/04/04 09:37:29;;;;;;;5.67;3.85;;;6.50;99.90;;;;;;2022536;70;21088;-69
2022/04/04 09:40:24;;;;;;;8.10;4.22;;;6.50;99.90;;;;;;2033331;70;21051;-69
2022/04/04 09:42:56;;;;;;;4.83;3.42;;;6.80;99.90;;;;;;2013562;69;21036;-68
2022/04/04 09:45:26;;;;;;;8.50;3.45;;;6.80;99.90;;;;;;1955493;73;21070;-68
2022/04/04 09:48:02;;;;;;;4.62;3.15;;;7.10;99.90;;;;;;1990374;71;21119;-68
2022/04/04 09:50:46;;;;;;;4.30;3.33;;;6.80;98.50;;;;;;2024924;70;21339;-70
2022/04/04 09:53:21;;;;;;;4.37;3.95;;;6.60;99.90;;;;;;2032175;70;21091;-67
2022/04/04 09:55:55;;;;;;;5.28;3.83;;;6.70;99.90;;;;;;2032628;70;21135;-67
2022/04/04 09:58:23;;;;;;;3.80;3.50;;;6.70;99.90;;;;;;2018711;70;21153;-68
2022/04/04 10:00:51;;;;;;;5.42;4.00;;;6.90;99.90;;;;;;2029327;70;21123;-69
2022/04/04 10:03:19;;;;;;;7.95;4.25;;;6.90;99.80;;;;;;2026271;70;21522;-68
2022/04/04 10:05:50;;;;;;;4.62;3.60;;;7.10;98.80;;;;;;2013812;70;21132;-67
2022/04/04 10:08:19;;;;;;;4.35;3.33;;;7.30;99.20;;;;;;2014049;70;21047;-68
2022/04/04 10:10:46;;;;;;;4.15;3.75;;;7.70;97.10;;;;;;2017411;70;21121;-68
2022/04/04 10:13:14;;;;;;;4.58;3.72;;;7.60;97.90;;;;;;2030103;69;21055;-69
2022/04/04 10:15:42;;;;;;;5.00;3.50;;;7.60;98.00;;;;;;2028139;70;21054;-69
2022/04/04 10:18:09;;;;;;;5.12;3.77;;;7.90;98.00;;;;;;2019741;70;21054;-69
2022/04/04 10:20:37;;;;;;;3.58;3.17;;;8.00;97.60;;;;;;2020638;70;21175;-69
2022/04/04 10:23:05;;;;;;;5.95;3.80;;;8.10;96.80;;;;;;2018813;69;21112;-68
2022/04/04 10:25:34;;;;;;;3.70;3.35;;;8.00;96.20;;;;;;2019491;69;21034;-69
2022/04/04 10:28:01;;;;;;;5.12;4.12;;;8.00;96.20;;;;;;2012753;71;21499;-69
2022/04/04 10:30:42;;;;;;;4.67;3.67;;;7.40;96.80;;;;;;2022879;70;21054;-69
2022/04/04 10:33:21;;;;;;;4.10;3.40;;;7.50;97.00;;;;;;2032891;69;21067;-69
2022/04/04 10:36:08;;;;;;;4.33;3.47;;;7.90;97.40;;;;;;2015993;69;21135;-68
2022/04/04 10:38:49;;;;;;;4.20;3.75;;;8.30;96.80;;;;;;2025115;70;21051;-69
2022/04/04 10:41:27;;;;;;;6.97;4.05;;;7.90;97.00;;;;;;2023884;69;21092;-69
2022/04/04 10:43:55;;;;;;;4.55;3.83;;;7.90;97.40;;;;;;2019452;69;21063;-69
2022/04/04 10:46:24;;;;;;;7.10;4.08;;;7.80;97.40;;;;;;1995212;70;21055;-67
2022/04/04 10:48:53;;;;;;;6.67;4.12;;;8.00;97.70;;;;;;2034647;69;21443;-68
2022/04/04 10:51:23;;;;;;;5.90;4.05;;;8.00;98.40;;;;;;2030840;69;21039;-69
2022/04/04 10:53:55;;;;;;;5.53;4.43;;;8.10;98.10;;;;;;2025874;70;21388;-69
2022/04/04 10:56:24;;;;;;;6.70;4.40;;;8.10;99.00;;;;;;2016003;70;21183;-68
2022/04/04 10:58:53;;;;;;;9.98;4.58;;;7.90;99.10;;;;;;2010312;71;21121;-69
2022/04/04 11:01:21;;;;;;;6.55;4.65;;;7.70;99.50;;;;;;2015525;70;21205;-70
2022/04/04 11:03:58;;;;;;;5.50;4.72;;;8.00;99.90;;;;;;2021848;70;21115;-69
2022/04/04 11:09:32;;;;;;;5.40;4.03;;;8.30;99.10;;;;;;2019123;70;21056;-69
2022/04/04 11:12:08;;;;;;;7.70;3.95;;;8.30;98.70;;;;;;2022947;70;21091;-70
2022/04/04 11:14:39;;;;;;;5.83;4.17;;;8.00;99.60;;;;;;2012437;70;21169;-70
2022/04/04 11:17:17;;;;;;;7.40;4.80;;;7.60;99.90;;;;;;2022994;70;21099;-70
2022/04/04 11:20:00;;;;;;;8.13;4.00;;;7.20;99.90;;;;;;1977800;72;21523;-67
2022/04/04 11:22:25;;;;;;;5.55;4.50;;;7.60;99.90;;;;;;1923519;72;21055;-69
2022/04/04 11:25:06;;;;;;;6.05;4.35;;;7.80;99.90;;;;;;2028721;70;21054;-68
2022/04/04 11:27:34;;;;;;;;;;;8.00;99.90;;;;;;2029870;70;21136;-69
2022/04/04 11:30:04;;;;;;;7.17;4.05;;;8.70;99.90;;;;;;1994462;70;20477;-68
2022/04/04 11:32:40;;;;;;;6.37;4.12;;;8.90;98.00;;;;;;2026131;69;21054;-69
2022/04/04 11:35:04;;;;;;;5.15;3.70;;;8.30;98.10;;;;;;2019020;70;21461;-69
2022/04/04 11:37:32;;;;;;;6.43;4.43;;;8.20;99.20;;;;;;2018386;70;21027;-71
2022/04/04 11:40:03;;;;;;;3.92;3.50;;;8.20;99.90;;;;;;2027301;70;21687;-70
2022/04/04 11:42:30;;;;;;;4.10;3.67;;;8.70;99.90;;;;;;2027152;70;21123;-69
2022/04/04 11:44:59;;;;;;;3.87;3.45;;;9.00;99.00;;;;;;2024091;70;21591;-69
2022/04/04 11:47:27;;;;;;;4.10;3.70;;;9.30;99.20;;;;;;2015311;70;21202;-69
2022/04/04 11:49:58;;;;;;;6.25;4.10;;;9.20;97.30;;;;;;2028711;69;21424;-69
2022/04/04 11:52:25;;;;;;;4.25;3.35;;;9.30;97.20;;;;;;2013299;70;21113;-71
2022/04/04 11:54:53;;;;;;;7.30;3.70;;;9.30;97.20;;;;;;2031265;70;21160;-69
2022/04/04 11:57:24;;;;;;;3.72;3.17;;;9.60;96.80;;;;;;2025225;69;21063;-70
2022/04/04 11:59:51;;;;;;;9.63;3.52;;;9.00;97.20;;;;;;2017561;70;21129;-69
2022/04/04 12:02:23;;;;;;;5.60;3.37;;;9.20;97.70;;;;;;1994079;70;21047;-69
2022/04/04 12:04:49;;;;;;;5.30;3.27;;;10.00;97.80;;;;;;2034312;69;21149;-72
2022/04/04 12:07:17;;;;;;;3.20;2.90;;;9.90;97.10;;;;;;1990339;71;21047;-68
2022/04/04 12:09:52;;;;;;;3.52;3.02;;;10.20;97.00;;;;;;2018735;70;21042;-69
2022/04/04 12:12:19;;;;;;;3.40;3.10;;;10.50;95.00;;;;;;2016876;70;21043;-69
2022/04/04 12:14:48;;;;;;;5.15;3.55;;;10.30;96.50;;;;;;2020408;70;21050;-70
2022/04/04 12:17:15;;;;;;;4.55;3.42;;;10.30;95.80;;;;;;2026826;69;21614;-69
2022/04/04 12:19:45;;;;;;;4.25;3.25;;;10.20;95.50;;;;;;2010569;71;21024;-74
2022/04/04 12:25:02;;;;;;;4.20;3.77;;;9.30;98.80;;;;;;2019996;70;21502;-69
2022/04/04 12:27:30;;;;;;;6.05;3.60;;;10.20;98.10;;;;;;2019330;70;21170;-68
2022/04/04 12:30:01;;;;;;;4.53;3.42;;;9.30;96.30;;;;;;2030748;69;21085;-69
2022/04/04 12:32:55;;;;;;;5.22;3.72;;;9.50;97.50;;;;;;2019731;69;21214;-69
2022/04/04 12:35:22;;;;;;;3.85;3.42;;;9.20;97.40;;;;;;1954042;72;21074;-69
2022/04/04 12:37:51;;;;;;;5.65;3.52;;;9.80;98.20;;;;;;1963188;73;21010;-68
2022/04/04 12:40:25;;;;;;;4.28;3.67;;;10.80;96.70;;;;;;1958709;73;21070;-68
2022/04/04 12:42:54;;;;;;;4.22;3.40;;;10.40;96.20;;;;;;1963169;71;21501;-68
2022/04/04 12:45:21;;;;;;;4.15;3.75;;;9.70;97.30;;;;;;1957890;73;21047;-68
2022/04/04 12:48:00;;;;;;;4.85;4.10;;;9.10;97.70;;;;;;1961994;71;21061;-69
2022/04/04 12:50:38;;;;;;;7.45;3.70;;;9.30;98.00;;;;;;1958942;72;21403;-68
2022/04/04 12:53:07;;;;;;;5.78;3.50;;;8.90;98.20;;;;;;1962278;71;21852;-68